Time;durP1;ratioP1;P1;durP2;ratioP2;P2;SDS_P1;SDS_P2;PMS_P1;PMS_P2;Temp;Humidity;BMP_temperature;BMP_pressure;BME280_temperature;BME280_humidity;BME280_pressure;Samples;Min_cycle;Max_cycle;Signal;HPM_P1;HPM_P2
2021/01/28 00:01:15;;;;;;;10.65;8.75;;;23.00;33.50;;;;;;5030327;28;20338;-60
2021/01/28 00:03:41;;;;;;;11.70;8.77;;;23.00;33.50;;;;;;5024404;28;20034;-55
2021/01/28 00:06:08;;;;;;;10.18;8.32;;;22.90;33.50;;;;;;5025711;28;20025;-60
2021/01/28 00:08:34;;;;;;;11.10;9.20;;;22.90;33.50;;;;;;5032227;28;20056;-54
2021/01/28 00:11:00;;;;;;;12.30;9.55;;;22.90;33.60;;;;;;5021870;28;20044;-61
2021/01/28 00:13:26;;;;;;;11.50;8.55;;;22.90;33.60;;;;;;5030215;28;20026;-60
2021/01/28 00:15:52;;;;;;;11.95;9.02;;;22.90;33.60;;;;;;5019233;28;20026;-57
2021/01/28 00:18:17;;;;;;;10.65;8.32;;;22.90;33.60;;;;;;5025591;28;20434;-60
2021/01/28 00:20:46;;;;;;;12.57;8.50;;;22.80;33.60;;;;;;5026333;28;20062;-58
2021/01/28 00:23:13;;;;;;;11.57;8.52;;;22.90;33.60;;;;;;5026155;28;20036;-60
2021/01/28 00:25:39;;;;;;;9.30;7.78;;;22.80;33.60;;;;;;5024024;28;20044;-59
2021/01/28 00:28:08;;;;;;;12.15;8.65;;;22.80;33.60;;;;;;5025183;28;20026;-61
2021/01/28 00:30:40;;;;;;;12.75;8.50;;;22.80;33.70;;;;;;5023408;28;20029;-59
2021/01/28 00:33:06;;;;;;;12.70;8.60;;;22.80;33.60;;;;;;5030085;28;20021;-59
2021/01/28 00:35:41;;;;;;;11.43;7.93;;;22.80;33.70;;;;;;5021112;28;20461;-60
2021/01/28 00:38:10;;;;;;;11.32;8.30;;;22.80;33.70;;;;;;5018031;28;20050;-58
2021/01/28 00:40:36;;;;;;;11.00;7.97;;;22.70;33.70;;;;;;5018238;28;20042;-61
2021/01/28 00:43:02;;;;;;;10.48;8.30;;;22.70;33.70;;;;;;5019871;28;20091;-61
2021/01/28 00:45:30;;;;;;;11.23;8.02;;;22.70;33.70;;;;;;5026886;28;20022;-58
2021/01/28 00:47:56;;;;;;;11.68;7.78;;;22.70;33.70;;;;;;5025187;28;20079;-58
2021/01/28 00:50:25;;;;;;;10.77;8.35;;;22.70;33.80;;;;;;5030238;28;20025;-58
2021/01/28 00:52:51;;;;;;;9.48;7.30;;;22.70;33.80;;;;;;5020571;28;20030;-58
2021/01/28 00:55:19;;;;;;;10.25;7.40;;;22.70;33.80;;;;;;5025540;28;20377;-59
2021/01/28 00:57:49;;;;;;;10.10;7.80;;;22.60;33.80;;;;;;5023110;28;20119;-62
2021/01/28 01:00:24;;;;;;;11.13;7.85;;;22.60;34.50;;;;;;5024332;28;20183;-60
2021/01/28 01:02:50;;;;;;;9.25;8.00;;;22.60;33.80;;;;;;5018928;28;20026;-60
2021/01/28 01:05:19;;;;;;;10.82;7.47;;;22.60;33.90;;;;;;5019685;28;20087;-58
2021/01/28 01:07:47;;;;;;;9.13;7.22;;;22.60;33.90;;;;;;5023286;28;20467;-55
2021/01/28 01:10:33;;;;;;;10.45;7.60;;;22.60;33.90;;;;;;5023362;28;20040;-59
2021/01/28 01:12:59;;;;;;;10.88;7.78;;;22.60;33.90;;;;;;5029743;28;20120;-56
2021/01/28 01:15:25;;;;;;;11.07;7.43;;;22.60;34.00;;;;;;5015047;28;20053;-58
2021/01/28 01:17:51;;;;;;;10.35;7.18;;;22.60;34.00;;;;;;5015727;28;20038;-57
2021/01/28 01:20:23;;;;;;;9.30;7.55;;;22.60;34.00;;;;;;5026632;28;20065;-55
2021/01/28 01:22:50;;;;;;;9.15;7.00;;;22.50;33.90;;;;;;5017043;28;20036;-57
2021/01/28 01:25:17;;;;;;;8.30;6.60;;;22.60;34.00;;;;;;5027781;28;20025;-60
2021/01/28 01:27:44;;;;;;;9.23;6.63;;;22.50;34.00;;;;;;5030752;28;20018;-59
2021/01/28 01:30:30;;;;;;;9.43;6.75;;;22.50;34.00;;;;;;5023608;28;20030;-61
2021/01/28 01:32:56;;;;;;;9.05;7.35;;;22.50;34.00;;;;;;5022669;28;20116;-57
2021/01/28 01:35:48;;;;;;;11.10;7.10;;;22.50;34.00;;;;;;5016735;28;20453;-57
2021/01/28 01:38:14;;;;;;;10.05;7.70;;;22.50;34.00;;;;;;5019134;28;20046;-59
2021/01/28 01:40:45;;;;;;;8.77;6.93;;;22.50;34.10;;;;;;5021851;28;20125;-59
2021/01/28 01:43:14;;;;;;;8.32;6.88;;;22.50;34.10;;;;;;5025263;28;20036;-62
2021/01/28 01:45:55;;;;;;;11.70;7.63;;;22.50;34.10;;;;;;5018831;28;20017;-62
2021/01/28 01:48:26;;;;;;;9.30;6.60;;;22.40;34.00;;;;;;5023737;28;20144;-60
2021/01/28 01:51:15;;;;;;;9.80;6.60;;;22.40;34.10;;;;;;5021387;28;20112;-59
2021/01/28 01:53:53;;;;;;;10.00;7.30;;;22.40;34.10;;;;;;5026678;28;20037;-59
2021/01/28 01:56:23;;;;;;;8.65;6.70;;;22.40;34.10;;;;;;5026616;28;21349;-60
2021/01/28 01:59:07;;;;;;;10.52;6.97;;;22.40;34.10;;;;;;5013833;28;20038;-61
2021/01/28 02:02:00;;;;;;;9.80;6.82;;;22.40;34.20;;;;;;5018580;28;20131;-57
2021/01/28 02:04:49;;;;;;;8.32;6.13;;;22.40;34.10;;;;;;5021916;28;20427;-60
2021/01/28 02:07:41;;;;;;;9.10;6.82;;;22.40;34.20;;;;;;4996673;28;20049;-60
2021/01/28 02:10:26;;;;;;;9.15;7.20;;;22.40;34.20;;;;;;5015845;28;20095;-57
2021/01/28 02:13:27;;;;;;;8.30;6.65;;;22.30;34.20;;;;;;5005730;28;20057;-55
2021/01/28 02:16:06;;;;;;;7.97;6.55;;;22.40;34.30;;;;;;5021310;28;20034;-60
2021/01/28 02:18:43;;;;;;;9.63;7.03;;;22.30;34.30;;;;;;5020924;28;20148;-59
2021/01/28 02:21:20;;;;;;;8.93;7.18;;;22.30;34.30;;;;;;5030746;28;20104;-56
2021/01/28 02:24:09;;;;;;;8.20;6.43;;;22.30;34.30;;;;;;5028133;28;20106;-57
2021/01/28 02:26:35;;;;;;;9.80;6.93;;;22.30;34.30;;;;;;5013538;28;20031;-60
2021/01/28 02:29:30;;;;;;;8.85;6.38;;;22.30;34.30;;;;;;5024424;28;20458;-61
2021/01/28 02:31:57;;;;;;;8.93;6.70;;;22.30;34.30;;;;;;5020508;28;20035;-61
2021/01/28 02:34:27;;;;;;;8.88;6.28;;;22.30;34.30;;;;;;5026712;28;20108;-62
2021/01/28 02:37:14;;;;;;;9.00;6.38;;;22.30;34.30;;;;;;5032294;28;20048;-59
2021/01/28 02:39:58;;;;;;;8.57;6.88;;;22.30;34.30;;;;;;5027226;28;20088;-57
2021/01/28 02:42:44;;;;;;;9.25;6.65;;;22.30;34.30;;;;;;5028551;28;20112;-59
2021/01/28 02:45:21;;;;;;;7.80;6.15;;;22.30;34.40;;;;;;5018008;28;20025;-56
2021/01/28 02:48:08;;;;;;;7.43;6.32;;;22.20;34.30;;;;;;5001413;28;20037;-59
2021/01/28 02:50:44;;;;;;;8.55;6.45;;;22.20;34.30;;;;;;5029918;28;20357;-61
2021/01/28 02:53:11;;;;;;;8.75;6.45;;;22.20;34.40;;;;;;5031155;28;20123;-60
2021/01/28 02:55:42;;;;;;;8.63;6.55;;;22.20;34.40;;;;;;5016620;28;20426;-61
2021/01/28 02:58:10;;;;;;;8.25;6.10;;;22.20;34.40;;;;;;5020200;28;20099;-61
2021/01/28 03:00:51;;;;;;;8.70;6.40;;;22.20;34.40;;;;;;5005679;28;20026;-61
2021/01/28 03:03:16;;;;;;;8.13;6.78;;;22.20;34.40;;;;;;5016273;28;20026;-60
2021/01/28 03:05:46;;;;;;;7.80;6.13;;;22.20;34.40;;;;;;5013039;28;20026;-60
2021/01/28 03:08:12;;;;;;;9.00;6.65;;;22.20;34.40;;;;;;5018572;28;20041;-61
2021/01/28 03:10:39;;;;;;;7.88;5.68;;;22.20;34.40;;;;;;5030749;28;20025;-59
2021/01/28 03:13:06;;;;;;;8.30;5.90;;;22.20;34.50;;;;;;5017757;28;20049;-59
2021/01/28 03:15:52;;;;;;;8.05;5.97;;;22.20;34.50;;;;;;5025698;28;20042;-61
2021/01/28 03:18:19;;;;;;;8.32;6.00;;;22.10;34.50;;;;;;5029469;28;20052;-61
2021/01/28 03:20:46;;;;;;;9.25;6.50;;;22.10;34.50;;;;;;5017751;28;20085;-59
2021/01/28 03:23:26;;;;;;;8.55;6.22;;;22.10;34.50;;;;;;5016890;28;20017;-59
2021/01/28 03:26:12;;;;;;;7.93;6.32;;;22.10;34.60;;;;;;5029962;28;20048;-59
2021/01/28 03:28:42;;;;;;;9.20;6.60;;;22.10;34.60;;;;;;5010227;28;20026;-61
2021/01/28 03:31:14;;;;;;;8.65;6.47;;;22.10;34.60;;;;;;5015153;28;20418;-58
2021/01/28 03:33:40;;;;;;;8.55;6.60;;;22.10;34.60;;;;;;5015095;28;20033;-62
2021/01/28 03:36:07;;;;;;;8.73;7.00;;;22.10;34.60;;;;;;5017165;28;20462;-61
2021/01/28 03:38:34;;;;;;;8.10;6.18;;;22.10;34.60;;;;;;5016246;28;20061;-55
2021/01/28 03:41:00;;;;;;;8.05;6.22;;;22.10;34.70;;;;;;5031667;28;20030;-59
2021/01/28 03:43:27;;;;;;;8.32;7.00;;;22.10;34.70;;;;;;5030870;28;20068;-62
2021/01/28 03:45:52;;;;;;;8.65;6.80;;;22.00;34.60;;;;;;5029541;28;20076;-60
2021/01/28 03:48:18;;;;;;;8.60;6.65;;;22.00;34.60;;;;;;5036548;28;20052;-56
2021/01/28 03:51:05;;;;;;;8.07;6.35;;;22.00;34.60;;;;;;5032660;28;20062;-60
2021/01/28 03:53:35;;;;;;;9.07;6.32;;;22.00;34.70;;;;;;5032314;28;20510;-57
2021/01/28 03:56:17;;;;;;;8.10;6.20;;;22.00;34.70;;;;;;5022316;28;20037;-56
2021/01/28 03:58:43;;;;;;;8.10;5.53;;;22.00;34.70;;;;;;5025516;28;20454;-56
2021/01/28 04:01:27;;;;;;;7.30;6.13;;;22.00;34.70;;;;;;5033548;28;20040;-61
2021/01/28 04:04:01;;;;;;;6.90;5.30;;;22.00;34.70;;;;;;5021632;28;20365;-57
2021/01/28 04:06:43;;;;;;;6.53;5.20;;;22.00;34.70;;;;;;5007841;28;20036;-57
2021/01/28 04:09:18;;;;;;;6.95;5.25;;;22.00;34.70;;;;;;5026108;28;20033;-58
2021/01/28 04:11:54;;;;;;;6.88;5.18;;;22.00;34.70;;;;;;5017064;28;20048;-62
2021/01/28 04:14:37;;;;;;;7.75;5.20;;;22.00;34.70;;;;;;5027508;28;20428;-58
2021/01/28 04:17:04;;;;;;;8.30;5.88;;;22.00;34.70;;;;;;4999860;28;20034;-59
2021/01/28 04:19:30;;;;;;;5.75;4.80;;;22.00;34.70;;;;;;5019651;28;20039;-59
2021/01/28 04:21:56;;;;;;;7.53;5.43;;;22.00;34.70;;;;;;5034904;28;20026;-60
2021/01/28 04:24:22;;;;;;;5.97;5.07;;;21.90;34.60;;;;;;5022243;28;20439;-59
2021/01/28 04:26:52;;;;;;;6.20;4.80;;;21.90;34.60;;;;;;5029272;28;20033;-57
2021/01/28 04:29:28;;;;;;;6.45;4.10;;;21.90;34.60;;;;;;5027901;28;20112;-59
2021/01/28 04:32:17;;;;;;;6.13;4.25;;;21.90;34.50;;;;;;5023158;28;20045;-62
2021/01/28 04:35:16;;;;;;;5.38;3.95;;;21.90;34.50;;;;;;4977648;28;20042;-58
2021/01/28 04:37:42;;;;;;;6.90;4.53;;;21.90;34.50;;;;;;5014894;28;20074;-60
2021/01/28 04:40:36;;;;;;;5.35;3.63;;;21.90;34.50;;;;;;5024667;28;20025;-61
2021/01/28 04:43:24;;;;;;;7.78;4.22;;;21.90;34.50;;;;;;5029310;28;20141;-57
2021/01/28 04:46:11;;;;;;;5.20;4.07;;;21.90;34.50;;;;;;5032536;28;20120;-59
2021/01/28 04:48:41;;;;;;;5.30;3.85;;;21.90;34.50;;;;;;5032584;28;20030;-61
2021/01/28 04:51:20;;;;;;;5.38;3.95;;;21.90;34.50;;;;;;5016021;28;20022;-58
2021/01/28 04:53:51;;;;;;;4.10;3.70;;;21.90;34.50;;;;;;5029696;28;20140;-60
2021/01/28 04:56:27;;;;;;;4.40;3.50;;;21.80;34.50;;;;;;5016913;28;20029;-62
2021/01/28 04:59:30;;;;;;;4.65;3.58;;;21.80;34.50;;;;;;5014209;28;20145;-60
2021/01/28 05:01:59;;;;;;;4.82;3.67;;;21.80;34.50;;;;;;5014762;28;20057;-62
2021/01/28 05:04:49;;;;;;;5.65;3.90;;;21.80;34.50;;;;;;5016005;28;20045;-60
2021/01/28 05:07:46;;;;;;;5.13;3.72;;;21.80;34.50;;;;;;4945491;28;20036;-58
2021/01/28 05:10:31;;;;;;;5.68;3.65;;;21.80;34.50;;;;;;5021802;28;20103;-60
2021/01/28 05:13:28;;;;;;;5.45;3.70;;;21.80;34.50;;;;;;5032771;28;20091;-60
2021/01/28 05:16:38;;;;;;;4.55;3.50;;;21.80;34.50;;;;;;5029711;28;20055;-59
2021/01/28 05:19:40;;;;;;;4.68;3.40;;;21.80;34.50;;;;;;5015676;28;20372;-59
2021/01/28 05:22:36;;;;;;;4.05;3.40;;;21.70;34.50;;;;;;5026460;28;20107;-61
2021/01/28 05:25:30;;;;;;;3.88;3.13;;;21.70;34.50;;;;;;5025356;28;20018;-62
2021/01/28 05:28:28;;;;;;;3.72;2.90;;;21.70;34.50;;;;;;5001663;28;20121;-59
2021/01/28 05:31:17;;;;;;;3.67;3.08;;;21.70;34.50;;;;;;5019388;28;20034;-60
2021/01/28 05:33:45;;;;;;;4.15;3.22;;;21.70;34.50;;;;;;5031099;28;20118;-60
2021/01/28 05:36:29;;;;;;;3.50;2.80;;;21.70;34.50;;;;;;5027243;28;20032;-61
2021/01/28 05:39:27;;;;;;;4.32;3.15;;;21.70;34.40;;;;;;5016190;28;20443;-61
2021/01/28 05:42:27;;;;;;;3.60;2.92;;;21.70;34.40;;;;;;5013859;28;20038;-61
2021/01/28 05:44:56;;;;;;;3.83;2.72;;;21.70;34.40;;;;;;5014974;28;20393;-60
2021/01/28 05:47:33;;;;;;;4.80;2.50;;;21.70;34.40;;;;;;5014325;28;20040;-58
2021/01/28 05:50:34;;;;;;;3.65;2.80;;;21.70;34.40;;;;;;4922304;29;20048;-57
2021/01/28 05:53:09;;;;;;;3.50;2.67;;;21.70;34.40;;;;;;5002455;28;20050;-58
2021/01/28 05:55:36;;;;;;;3.88;2.60;;;21.70;34.40;;;;;;5026068;28;20393;-57
2021/01/28 05:58:32;;;;;;;3.28;2.60;;;21.70;34.40;;;;;;5022362;28;20038;-57
2021/01/28 06:01:12;;;;;;;3.08;2.08;;;21.70;34.30;;;;;;5019977;28;20117;-59
2021/01/28 06:04:01;;;;;;;4.15;2.58;;;21.70;34.40;;;;;;5024443;28;20417;-58
2021/01/28 06:06:58;;;;;;;3.95;2.33;;;21.70;34.30;;;;;;5018499;28;20060;-57
2021/01/28 06:10:19;;;;;;;2.95;2.60;;;21.60;34.30;;;;;;5015272;28;20368;-59
2021/01/28 06:13:22;;;;;;;3.40;2.50;;;21.70;34.30;;;;;;5022243;28;20048;-54
2021/01/28 06:16:02;;;;;;;2.47;2.10;;;21.60;34.30;;;;;;5025460;28;20124;-57
2021/01/28 06:18:37;;;;;;;3.15;2.30;;;21.60;34.30;;;;;;5033281;28;20057;-57
2021/01/28 06:21:40;;;;;;;3.67;2.22;;;21.60;34.30;;;;;;5028192;28;20302;-57
2021/01/28 06:25:23;;;;;;;2.25;2.05;;;21.60;34.30;;;;;;5033896;28;20044;-59
2021/01/28 06:28:13;;;;;;;2.50;2.03;;;21.60;34.30;;;;;;4960877;28;20465;-57
2021/01/28 06:30:59;;;;;;;2.63;2.05;;;21.60;34.30;;;;;;5013529;28;20105;-59
2021/01/28 06:34:12;;;;;;;2.40;1.98;;;21.60;34.30;;;;;;5016298;28;20056;-56
2021/01/28 06:37:18;;;;;;;3.00;2.08;;;21.60;34.30;;;;;;5014674;28;20108;-56
2021/01/28 06:40:24;;;;;;;2.80;1.80;;;21.60;34.30;;;;;;5025848;28;20333;-61
2021/01/28 06:43:14;;;;;;;2.30;1.90;;;21.60;34.30;;;;;;5032616;28;20096;-62
2021/01/28 06:46:05;;;;;;;2.35;1.80;;;21.50;34.20;;;;;;5025338;28;20041;-62
2021/01/28 06:48:48;;;;;;;2.88;1.90;;;21.50;34.30;;;;;;5017572;28;20026;-59
2021/01/28 06:51:31;;;;;;;3.33;1.80;;;21.50;34.30;;;;;;5023905;28;20065;-56
2021/01/28 06:54:06;;;;;;;2.20;1.73;;;21.50;34.30;;;;;;5022739;28;20052;-58
2021/01/28 06:56:50;;;;;;;1.92;1.50;;;21.50;34.30;;;;;;5026975;28;20037;-58
2021/01/28 06:59:43;;;;;;;2.63;1.80;;;21.50;34.30;;;;;;5020046;28;20489;-60
2021/01/28 07:02:18;;;;;;;2.30;1.80;;;21.50;34.30;;;;;;5014261;28;20029;-60
2021/01/28 07:05:15;;;;;;;3.05;1.83;;;21.50;34.20;;;;;;5017946;28;20044;-60
2021/01/28 07:08:02;;;;;;;3.42;1.88;;;21.50;34.30;;;;;;5013160;28;20453;-61
2021/01/28 07:10:58;;;;;;;1.60;1.50;;;21.50;34.30;;;;;;4960942;28;20498;-62
2021/01/28 07:13:42;;;;;;;1.55;1.45;;;21.50;34.30;;;;;;5018542;28;20051;-60
2021/01/28 07:16:37;;;;;;;2.20;1.73;;;21.50;34.30;;;;;;5023693;28;20029;-59
2021/01/28 07:19:28;;;;;;;2.80;2.00;;;21.50;34.40;;;;;;5018878;28;20467;-61
2021/01/28 07:21:56;;;;;;;3.42;1.67;;;21.40;34.30;;;;;;5018652;28;20364;-59
2021/01/28 07:24:30;;;;;;;2.17;1.85;;;21.40;34.40;;;;;;5034900;28;20036;-62
2021/01/28 07:27:00;;;;;;;2.58;1.63;;;21.50;34.40;;;;;;5020415;28;20026;-61
2021/01/28 07:29:37;;;;;;;2.53;1.60;;;21.50;34.40;;;;;;5021727;28;20311;-61
2021/01/28 07:32:08;;;;;;;2.30;1.80;;;21.40;34.30;;;;;;5033207;28;20029;-63
2021/01/28 07:35:26;;;;;;;2.00;1.48;;;21.40;34.30;;;;;;5025377;28;20441;-61
2021/01/28 07:38:43;;;;;;;2.97;1.88;;;21.40;34.40;;;;;;5017734;28;20050;-60
2021/01/28 07:41:53;;;;;;;3.30;1.88;;;21.50;35.00;;;;;;4965140;28;20197;-57
2021/01/28 07:44:42;;;;;;;2.42;1.88;;;21.50;35.30;;;;;;4961968;28;20054;-61
2021/01/28 07:47:29;;;;;;;3.08;2.10;;;21.50;35.50;;;;;;5017299;28;20049;-65
2021/01/28 07:50:12;;;;;;;2.55;1.90;;;21.60;35.50;;;;;;5021044;28;20116;-58
2021/01/28 07:52:52;;;;;;;2.63;2.05;;;21.60;35.50;;;;;;5020921;28;20033;-64
2021/01/28 07:55:36;;;;;;;3.22;2.47;;;21.70;35.50;;;;;;5032969;28;20116;-62
2021/01/28 07:58:04;;;;;;;4.93;4.00;;;21.80;35.50;;;;;;5032474;28;20380;-61
2021/01/28 08:00:39;;;;;;;4.40;3.88;;;21.80;35.40;;;;;;5025741;28;20033;-64
2021/01/28 08:03:14;;;;;;;5.82;4.88;;;21.90;35.40;;;;;;5018921;28;20031;-66
2021/01/28 08:05:40;;;;;;;6.30;5.35;;;22.00;35.50;;;;;;5019577;28;20045;-61
2021/01/28 08:08:09;;;;;;;7.28;5.97;;;22.10;35.40;;;;;;5018201;28;20088;-61
2021/01/28 08:10:37;;;;;;;7.95;6.93;;;22.20;35.40;;;;;;5030309;28;20449;-63
2021/01/28 08:13:06;;;;;;;9.50;8.13;;;22.30;35.40;;;;;;5023184;28;20045;-64
2021/01/28 08:16:06;;;;;;;8.85;7.88;;;22.30;35.40;;;;;;5030602;28;20033;-64
2021/01/28 08:18:36;;;;;;;10.95;9.38;;;22.40;35.40;;;;;;5003001;28;20053;-62
2021/01/28 08:21:12;;;;;;;11.80;10.25;;;22.50;35.40;;;;;;5016951;28;20044;-63
2021/01/28 08:23:41;;;;;;;12.82;10.80;;;22.60;35.40;;;;;;5022772;28;20352;-60
2021/01/28 08:26:10;;;;;;;12.98;11.63;;;22.60;35.30;;;;;;5035839;28;20094;-61
2021/01/28 08:28:41;;;;;;;13.93;12.27;;;22.70;35.30;;;;;;5016789;28;20072;-63
2021/01/28 08:31:31;;;;;;;14.65;13.05;;;22.80;35.30;;;;;;5033464;28;20029;-60
2021/01/28 08:34:03;;;;;;;15.00;12.88;;;22.80;35.20;;;;;;5019813;28;20045;-62
2021/01/28 08:36:43;;;;;;;17.10;14.98;;;22.90;35.20;;;;;;5034743;28;20065;-61
2021/01/28 08:39:21;;;;;;;15.02;13.43;;;23.00;35.10;;;;;;5017355;28;20038;-60
2021/01/28 08:42:02;;;;;;;16.23;14.50;;;23.00;35.00;;;;;;5018313;28;20084;-62
2021/01/28 08:44:29;;;;;;;17.20;15.25;;;23.00;34.90;;;;;;5025170;28;20033;-59
2021/01/28 08:47:14;;;;;;;18.27;15.65;;;23.10;34.90;;;;;;5017452;28;20056;-60
2021/01/28 08:49:40;;;;;;;19.10;15.43;;;23.20;34.80;;;;;;5017050;28;20026;-60
2021/01/28 08:52:16;;;;;;;16.08;14.38;;;23.20;34.80;;;;;;5032150;28;20036;-59
2021/01/28 08:54:44;;;;;;;18.25;14.63;;;23.30;34.70;;;;;;5017788;28;20116;-59
2021/01/28 08:57:13;;;;;;;15.88;14.18;;;23.30;34.60;;;;;;5016489;28;20125;-64
2021/01/28 08:59:43;;;;;;;17.27;15.45;;;23.30;34.40;;;;;;5015567;28;20033;-58
2021/01/28 09:02:20;;;;;;;17.77;15.85;;;23.30;34.40;;;;;;5019989;28;20101;-63
2021/01/28 09:05:15;;;;;;;19.42;17.38;;;23.40;34.40;;;;;;5031620;28;20022;-63
2021/01/28 09:07:48;;;;;;;20.20;17.60;;;23.40;34.40;;;;;;5011902;28;20128;-60
2021/01/28 09:10:27;;;;;;;21.08;18.77;;;23.40;34.50;;;;;;5035021;28;20025;-56
2021/01/28 09:13:04;;;;;;;20.60;18.40;;;23.40;34.40;;;;;;5033591;28;20029;-60
2021/01/28 09:15:31;;;;;;;21.55;19.25;;;23.40;34.50;;;;;;5017150;28;20035;-60
2021/01/28 09:18:05;;;;;;;24.63;20.10;;;23.40;34.50;;;;;;5017623;28;20029;-62
2021/01/28 09:20:33;;;;;;;21.67;19.30;;;23.40;34.50;;;;;;5032909;28;20029;-63
2021/01/28 09:23:10;;;;;;;26.80;22.85;;;23.40;34.40;;;;;;5019126;28;20153;-57
2021/01/28 09:25:36;;;;;;;27.00;23.52;;;23.50;34.70;;;;;;5023477;28;20460;-61
2021/01/28 09:28:14;;;;;;;30.17;26.25;;;23.60;34.70;;;;;;5019311;28;20036;-59
2021/01/28 09:30:46;;;;;;;30.45;27.15;;;23.90;34.60;;;;;;5017843;28;20037;-58
2021/01/28 09:33:25;;;;;;;33.35;28.73;;;24.00;34.40;;;;;;5016968;28;20116;-64
2021/01/28 09:36:29;;;;;;;33.03;27.58;;;24.20;34.20;;;;;;5021933;28;20415;-61
2021/01/28 09:39:15;;;;;;;30.07;26.83;;;24.40;33.90;;;;;;5028042;28;20052;-62
2021/01/28 09:41:45;;;;;;;34.33;30.55;;;24.60;33.80;;;;;;5027592;28;20034;-54
2021/01/28 09:44:49;;;;;;;35.03;31.25;;;24.70;33.60;;;;;;5026249;28;20031;-62
2021/01/28 09:47:28;;;;;;;33.63;30.02;;;24.80;33.30;;;;;;4993267;28;20056;-61
2021/01/28 09:49:57;;;;;;;34.40;30.55;;;24.90;33.10;;;;;;5024574;28;20083;-63
2021/01/28 09:52:32;;;;;;;32.15;28.73;;;25.10;33.10;;;;;;5017029;28;20087;-62
2021/01/28 09:55:00;;;;;;;36.08;31.63;;;25.10;32.80;;;;;;5018390;28;20049;-59
2021/01/28 09:57:27;;;;;;;36.05;32.20;;;25.30;32.80;;;;;;5023527;28;20026;-60
2021/01/28 09:59:57;;;;;;;36.88;33.05;;;25.30;32.70;;;;;;5025250;28;20037;-62
2021/01/28 10:03:07;;;;;;;35.03;31.20;;;25.40;32.60;;;;;;5028003;28;20033;-56
2021/01/28 10:05:35;;;;;;;35.85;31.95;;;25.50;32.50;;;;;;5002768;28;20049;-58
2021/01/28 10:08:01;;;;;;;37.20;33.22;;;25.50;32.50;;;;;;5023199;28;20053;-61
2021/01/28 10:10:30;;;;;;;35.78;31.98;;;25.60;32.40;;;;;;5024916;28;20033;-56
2021/01/28 10:12:58;;;;;;;36.20;32.40;;;25.60;32.30;;;;;;5018374;28;20466;-59
2021/01/28 10:15:25;;;;;;;36.45;32.63;;;25.70;32.30;;;;;;5024541;28;20034;-61
2021/01/28 10:17:52;;;;;;;40.47;36.17;;;25.70;32.20;;;;;;5026254;28;20029;-61
2021/01/28 10:20:18;;;;;;;40.75;34.97;;;25.80;32.10;;;;;;5023833;28;20026;-59
2021/01/28 10:22:44;;;;;;;38.78;34.65;;;25.80;32.00;;;;;;5014577;28;20044;-56
2021/01/28 10:25:12;;;;;;;37.25;33.15;;;25.80;32.00;;;;;;5021548;28;20413;-56
2021/01/28 10:27:38;;;;;;;40.55;36.30;;;25.80;31.90;;;;;;5027527;28;20029;-56
2021/01/28 10:30:06;;;;;;;41.38;36.35;;;25.80;31.90;;;;;;5023831;28;20028;-58
2021/01/28 10:32:32;;;;;;;43.00;38.40;;;25.80;31.90;;;;;;5022415;28;20041;-61
2021/01/28 10:34:58;;;;;;;43.38;38.72;;;25.80;31.80;;;;;;5022191;28;20452;-63
2021/01/28 10:37:24;;;;;;;45.42;40.42;;;25.90;31.80;;;;;;5022051;28;20025;-60
2021/01/28 10:39:50;;;;;;;46.08;41.13;;;25.90;31.80;;;;;;5022017;28;20044;-61
2021/01/28 10:42:21;;;;;;;44.15;39.58;;;25.90;31.70;;;;;;5018056;28;20473;-59
2021/01/28 10:44:47;;;;;;;39.42;35.28;;;26.00;31.70;;;;;;5022508;28;20381;-60
2021/01/28 10:47:14;;;;;;;42.05;37.65;;;26.00;31.60;;;;;;5019163;28;20037;-52
2021/01/28 10:49:40;;;;;;;45.35;40.33;;;26.00;31.60;;;;;;5014525;28;20033;-61
2021/01/28 10:52:06;;;;;;;46.33;41.45;;;26.00;31.60;;;;;;5016496;28;20116;-60
2021/01/28 10:54:32;;;;;;;44.58;39.90;;;25.90;31.60;;;;;;5019837;28;20132;-57
2021/01/28 10:56:58;;;;;;;45.67;40.67;;;25.90;31.70;;;;;;5017732;28;20034;-59
2021/01/28 10:59:23;;;;;;;45.40;40.63;;;25.80;31.70;;;;;;5017936;28;20092;-60
2021/01/28 11:01:49;;;;;;;47.40;42.40;;;25.80;31.80;;;;;;5020376;28;20125;-52
2021/01/28 11:04:15;;;;;;;49.97;44.53;;;25.80;32.00;;;;;;5016794;28;20038;-54
2021/01/28 11:06:41;;;;;;;49.45;44.25;;;25.70;32.00;;;;;;5030473;28;20038;-52
2021/01/28 11:09:06;;;;;;;46.28;41.42;;;25.70;32.00;;;;;;5037273;28;20091;-58
2021/01/28 11:11:32;;;;;;;48.13;43.05;;;25.70;32.00;;;;;;5028748;28;20029;-59
2021/01/28 11:13:58;;;;;;;48.45;43.30;;;25.70;32.00;;;;;;5032066;28;20199;-61
2021/01/28 11:16:25;;;;;;;47.40;42.38;;;25.60;32.00;;;;;;5028855;28;20022;-55
2021/01/28 11:18:52;;;;;;;48.60;43.38;;;25.60;32.00;;;;;;5028905;28;20056;-57
2021/01/28 11:21:19;;;;;;;48.60;43.20;;;25.60;32.10;;;;;;5019438;28;20040;-55
2021/01/28 11:23:45;;;;;;;49.90;44.42;;;25.60;32.00;;;;;;5036709;28;20041;-55
2021/01/28 11:26:11;;;;;;;51.40;45.88;;;25.60;32.10;;;;;;5027429;28;20108;-57
2021/01/28 11:28:37;;;;;;;52.65;46.85;;;25.60;32.10;;;;;;5015562;28;20413;-58
2021/01/28 11:31:04;;;;;;;51.45;45.85;;;25.60;32.20;;;;;;5024916;28;20026;-58
2021/01/28 11:33:32;;;;;;;52.88;47.30;;;25.50;32.20;;;;;;5017573;28;20109;-56
2021/01/28 11:35:57;;;;;;;53.50;47.88;;;25.50;32.20;;;;;;5024977;28;20033;-59
2021/01/28 11:38:23;;;;;;;52.58;46.95;;;25.50;32.30;;;;;;5019979;28;20469;-60
2021/01/28 11:40:49;;;;;;;52.92;47.22;;;25.40;32.30;;;;;;5019018;28;20208;-56
2021/01/28 11:43:15;;;;;;;52.72;47.13;;;25.40;32.40;;;;;;5025643;28;20441;-60
2021/01/28 11:45:40;;;;;;;51.13;45.55;;;25.40;32.50;;;;;;5028447;28;20038;-62
2021/01/28 11:48:07;;;;;;;53.35;47.75;;;25.40;32.50;;;;;;5025751;28;20120;-57
2021/01/28 11:50:32;;;;;;;53.67;47.90;;;25.40;32.50;;;;;;5026772;28;20037;-58
2021/01/28 11:52:58;;;;;;;52.97;47.22;;;25.30;32.40;;;;;;5023679;28;20025;-61
2021/01/28 11:55:27;;;;;;;51.50;45.95;;;25.40;32.50;;;;;;5024663;28;20036;-60
2021/01/28 11:57:53;;;;;;;52.53;46.90;;;25.30;32.50;;;;;;5022493;28;20392;-61
2021/01/28 12:00:20;;;;;;;52.75;47.13;;;25.30;32.50;;;;;;5022434;28;20048;-61
2021/01/28 12:02:46;;;;;;;51.08;45.58;;;25.30;32.50;;;;;;5026839;28;20065;-50
2021/01/28 12:05:14;;;;;;;38.13;33.22;;;25.30;32.70;;;;;;5023462;28;20040;-49
2021/01/28 12:07:40;;;;;;;33.05;29.38;;;25.20;32.80;;;;;;5026218;28;20096;-53
2021/01/28 12:10:09;;;;;;;32.20;28.85;;;25.10;32.90;;;;;;5027791;28;20021;-56
2021/01/28 12:12:35;;;;;;;32.92;29.45;;;24.90;33.10;;;;;;5018232;28;20511;-56
2021/01/28 12:15:01;;;;;;;31.98;28.60;;;24.80;33.30;;;;;;5032966;28;20029;-52
2021/01/28 12:17:27;;;;;;;33.58;30.02;;;24.70;33.40;;;;;;5024827;28;20025;-55
2021/01/28 12:19:53;;;;;;;33.50;30.02;;;24.60;33.60;;;;;;5022556;28;20038;-53
2021/01/28 12:22:18;;;;;;;35.25;31.55;;;24.50;33.70;;;;;;5024450;28;20112;-52
2021/01/28 12:24:45;;;;;;;35.83;32.05;;;24.40;33.80;;;;;;5022628;28;20037;-53
2021/01/28 12:27:11;;;;;;;35.60;31.10;;;24.40;34.00;;;;;;5018327;28;20038;-49
2021/01/28 12:29:42;;;;;;;33.92;30.33;;;24.30;34.00;;;;;;5024901;28;20526;-49
2021/01/28 12:32:12;;;;;;;33.63;29.58;;;24.30;34.10;;;;;;5022327;28;20030;-49
2021/01/28 12:34:39;;;;;;;33.83;30.15;;;24.30;34.00;;;;;;5018249;28;20048;-52
2021/01/28 12:37:05;;;;;;;33.63;28.88;;;24.30;34.00;;;;;;5028366;28;20041;-50
2021/01/28 12:39:31;;;;;;;33.53;30.02;;;24.30;34.00;;;;;;5035965;28;20473;-52
2021/01/28 12:41:58;;;;;;;34.22;30.38;;;24.30;34.10;;;;;;5036146;28;20055;-51
2021/01/28 12:44:23;;;;;;;34.13;30.48;;;24.20;34.10;;;;;;5031926;28;20034;-55
2021/01/28 12:46:49;;;;;;;34.17;30.50;;;24.20;34.10;;;;;;5021576;28;20125;-49
2021/01/28 12:49:15;;;;;;;34.78;31.13;;;24.20;34.10;;;;;;5015936;28;20576;-57
2021/01/28 12:51:41;;;;;;;36.30;32.42;;;24.20;34.10;;;;;;5016893;28;20072;-47
2021/01/28 12:54:07;;;;;;;36.30;32.50;;;24.20;34.10;;;;;;5016285;28;20449;-50
2021/01/28 12:56:33;;;;;;;38.17;34.15;;;24.20;34.20;;;;;;5031946;28;20352;-51
2021/01/28 12:58:59;;;;;;;35.90;31.98;;;24.20;34.10;;;;;;5033967;28;20049;-53
2021/01/28 13:01:24;;;;;;;37.75;33.80;;;24.20;34.10;;;;;;5034860;28;20052;-49
2021/01/28 13:03:50;;;;;;;36.42;32.63;;;24.20;34.10;;;;;;5035794;28;20029;-53
2021/01/28 13:06:16;;;;;;;37.95;33.92;;;24.20;34.00;;;;;;5034917;28;20036;-55
2021/01/28 13:08:42;;;;;;;37.33;33.50;;;24.20;34.00;;;;;;5035502;28;20021;-53
2021/01/28 13:11:12;;;;;;;38.85;34.83;;;24.30;34.10;;;;;;5033570;28;20310;-54
2021/01/28 13:13:38;;;;;;;41.88;37.45;;;24.30;34.10;;;;;;5035346;28;20065;-54
2021/01/28 13:16:05;;;;;;;37.05;33.17;;;24.20;34.00;;;;;;5035369;28;20040;-54
2021/01/28 13:18:31;;;;;;;39.35;35.17;;;24.20;34.00;;;;;;5034152;28;20049;-55
2021/01/28 13:20:57;;;;;;;39.08;34.95;;;24.30;34.00;;;;;;5034470;28;20091;-55